createdAt,value
2022-08-07T00:02:35.192Z,5.82
2022-08-07T00:04:04.320Z,5.95
2022-08-07T00:06:34.770Z,5.35
2022-08-07T00:09:16.266Z,5.60
2022-08-07T00:11:54.027Z,5.78
2022-08-07T00:14:30.568Z,5.00
2022-08-07T00:16:59.814Z,5.47
2022-08-07T00:19:59.638Z,5.13
2022-08-07T00:22:34.474Z,5.28
2022-08-07T00:25:06.957Z,5.60
2022-08-07T00:27:53.574Z,6.05
2022-08-07T00:30:28.540Z,5.50
2022-08-07T00:32:58.294Z,5.32
2022-08-07T00:35:27.474Z,5.60
2022-08-07T00:37:58.841Z,5.35
2022-08-07T00:40:39.358Z,5.82
2022-08-07T00:43:09.679Z,4.97
2022-08-07T00:45:41.262Z,5.75
2022-08-07T00:48:14.827Z,5.78
2022-08-07T00:50:50.739Z,5.20
2022-08-07T00:53:20.643Z,5.40
2022-08-07T00:56:02.613Z,5.38
2022-08-07T00:58:32.626Z,5.60
2022-08-07T01:01:02.290Z,5.15
2022-08-07T01:03:56.981Z,4.93
2022-08-07T01:06:19.641Z,5.75
2022-08-07T01:08:53.078Z,5.60
2022-08-07T01:12:23.902Z,6.13
2022-08-07T01:14:11.163Z,6.07
2022-08-07T01:16:42.953Z,5.72
2022-08-07T01:19:18.584Z,5.85
2022-08-07T01:21:53.460Z,5.78
2022-08-07T01:24:30.704Z,5.45
2022-08-07T01:27:01.659Z,5.55
2022-08-07T01:29:34.230Z,5.93
2022-08-07T01:32:11.894Z,5.95
2022-08-07T01:34:47.314Z,5.35
2022-08-07T01:37:18.999Z,5.60
2022-08-07T01:39:51.089Z,5.43
2022-08-07T01:42:39.810Z,5.10
2022-08-07T01:45:18.502Z,5.30
2022-08-07T01:48:19.746Z,5.68
2022-08-07T01:50:48.280Z,5.18
2022-08-07T01:54:12.620Z,5.40
2022-08-07T01:56:15.441Z,5.60
2022-08-07T01:58:50.709Z,5.10
2022-08-07T02:01:59.224Z,5.57
2022-08-07T02:04:17.450Z,5.53
2022-08-07T02:06:53.190Z,5.25
2022-08-07T02:09:51.678Z,5.07
2022-08-07T02:12:18.161Z,4.93
2022-08-07T02:14:57.277Z,4.75
2022-08-07T02:17:37.209Z,5.07
2022-08-07T02:20:10.023Z,5.57
2022-08-07T02:22:46.112Z,5.25
2022-08-07T02:25:18.976Z,5.30
2022-08-07T02:27:59.983Z,5.10
2022-08-07T02:30:30.052Z,5.22
2022-08-07T02:33:09.415Z,5.00
2022-08-07T02:36:30.488Z,5.55
2022-08-07T02:38:36.627Z,5.13
2022-08-07T02:41:10.851Z,4.93
2022-08-07T02:43:42.264Z,5.38
2022-08-07T02:46:19.488Z,4.85
2022-08-07T02:48:55.033Z,5.90
2022-08-07T02:51:42.101Z,5.55
2022-08-07T02:54:13.340Z,4.90
2022-08-07T02:56:47.626Z,5.80
2022-08-07T02:59:24.093Z,5.32
2022-08-07T03:02:01.930Z,5.18
2022-08-07T03:04:31.428Z,4.95
2022-08-07T03:07:03.359Z,4.60
2022-08-07T03:09:44.534Z,5.55
2022-08-07T03:12:22.447Z,4.60
2022-08-07T03:15:07.968Z,4.88
2022-08-07T03:17:53.404Z,5.15
2022-08-07T03:20:26.583Z,5.22
2022-08-07T03:22:56.093Z,5.38
2022-08-07T03:25:40.081Z,4.85
2022-08-07T03:28:37.431Z,5.28
2022-08-07T03:31:26.168Z,5.35
2022-08-07T03:34:00.469Z,4.80
2022-08-07T03:36:31.924Z,5.28
2022-08-07T03:39:06.023Z,4.93
2022-08-07T03:41:42.371Z,5.43
2022-08-07T03:44:21.780Z,5.50
2022-08-07T03:47:11.202Z,5.45
2022-08-07T03:49:41.219Z,4.80
2022-08-07T03:52:22.898Z,5.03
2022-08-07T03:54:57.411Z,5.82
2022-08-07T03:58:34.914Z,5.35
2022-08-07T04:00:21.087Z,5.20
2022-08-07T04:02:57.980Z,5.60
2022-08-07T04:05:40.952Z,5.53
2022-08-07T04:08:24.857Z,5.60
2022-08-07T04:12:15.626Z,4.47
2022-08-07T04:14:09.981Z,5.00
2022-08-07T04:16:33.930Z,4.88
2022-08-07T04:19:14.882Z,4.63
2022-08-07T04:21:59.527Z,5.30
2022-08-07T04:24:38.780Z,4.80
2022-08-07T04:27:15.290Z,4.55
2022-08-07T04:30:01.055Z,4.97
2022-08-07T04:33:10.452Z,4.63
2022-08-07T04:35:50.376Z,4.80
2022-08-07T04:38:23.997Z,4.82
2022-08-07T04:40:56.821Z,4.80
2022-08-07T04:44:10.430Z,4.78
2022-08-07T04:47:04.400Z,4.65
2022-08-07T04:49:47.341Z,5.00
2022-08-07T04:52:34.101Z,4.43
2022-08-07T04:55:15.217Z,4.60
2022-08-07T04:58:16.043Z,4.65
2022-08-07T05:00:58.239Z,5.00
2022-08-07T05:04:07.982Z,4.35
2022-08-07T05:06:28.181Z,4.88
2022-08-07T05:09:03.633Z,4.30
2022-08-07T05:11:57.262Z,4.20
2022-08-07T05:14:55.214Z,4.95
2022-08-07T05:17:52.095Z,4.40
2022-08-07T05:20:17.362Z,3.80
2022-08-07T05:22:50.569Z,4.72
2022-08-07T05:25:26.235Z,4.15
2022-08-07T05:28:22.881Z,4.07
2022-08-07T05:30:57.036Z,4.97
2022-08-07T05:33:29.533Z,4.57
2022-08-07T05:39:00.803Z,4.00
2022-08-07T05:41:21.837Z,3.92
2022-08-07T05:44:08.283Z,3.92
2022-08-07T05:46:44.514Z,4.25
2022-08-07T05:49:14.261Z,3.90
2022-08-07T05:51:47.496Z,4.35
2022-08-07T05:54:31.026Z,4.45
2022-08-07T05:57:07.709Z,4.40
2022-08-07T05:59:56.088Z,4.88
2022-08-07T06:02:32.695Z,4.30
2022-08-07T06:05:11.034Z,4.60
2022-08-07T06:08:29.615Z,5.05
2022-08-07T06:10:37.510Z,4.72
2022-08-07T06:13:13.630Z,4.90
2022-08-07T06:15:45.465Z,5.15
2022-08-07T06:18:22.824Z,5.80
2022-08-07T06:22:16.208Z,5.60
2022-08-07T06:24:37.286Z,5.03
2022-08-07T06:26:34.595Z,5.05
2022-08-07T06:29:04.190Z,5.47
2022-08-07T06:31:46.924Z,5.97
2022-08-07T06:34:21.623Z,5.63
2022-08-07T06:36:51.844Z,5.25
2022-08-07T06:40:16.505Z,4.88
2022-08-07T06:42:19.262Z,6.03
2022-08-07T06:45:11.785Z,5.90
2022-08-07T06:47:57.804Z,5.25
2022-08-07T06:50:33.701Z,6.50
2022-08-07T06:53:07.123Z,6.35
2022-08-07T06:56:01.457Z,6.03
2022-08-07T06:58:35.394Z,6.32
2022-08-07T07:01:11.341Z,6.47
2022-08-07T07:03:49.943Z,6.68
2022-08-07T07:06:26.492Z,6.28
2022-08-07T07:08:56.864Z,6.22
2022-08-07T07:12:08.780Z,5.85
2022-08-07T07:14:18.188Z,6.15
2022-08-07T07:16:53.654Z,6.35
2022-08-07T07:19:57.858Z,6.18
2022-08-07T07:22:35.930Z,6.38
2022-08-07T07:26:31.717Z,6.22
2022-08-07T07:28:03.095Z,7.30
2022-08-07T07:30:38.378Z,7.05
2022-08-07T07:33:11.781Z,7.70
2022-08-07T07:35:54.109Z,7.45
2022-08-07T07:38:32.157Z,7.38
2022-08-07T07:41:04.869Z,7.57
2022-08-07T07:44:14.262Z,6.95
2022-08-07T07:46:50.425Z,6.53
2022-08-07T07:50:31.549Z,6.00
2022-08-07T07:52:12.997Z,6.93
2022-08-07T07:54:44.162Z,6.35
2022-08-07T07:57:43.695Z,7.07
2022-08-07T08:00:11.690Z,7.50
2022-08-07T08:03:04.816Z,6.57
2022-08-07T08:05:54.252Z,6.38
2022-08-07T08:08:34.347Z,6.40
2022-08-07T08:11:16.610Z,6.60
2022-08-07T08:13:54.642Z,6.03
2022-08-07T08:16:29.798Z,6.65
2022-08-07T08:19:17.756Z,6.15
2022-08-07T08:22:09.761Z,5.35
2022-08-07T08:25:18.269Z,5.30
2022-08-07T08:27:55.874Z,5.53
2022-08-07T08:30:25.960Z,5.47
2022-08-07T08:32:57.069Z,4.90
2022-08-07T08:35:42.832Z,4.53
2022-08-07T08:38:19.854Z,5.40
2022-08-07T08:40:54.993Z,4.47
2022-08-07T08:43:42.359Z,4.80
2022-08-07T08:46:21.859Z,4.22
2022-08-07T08:48:59.445Z,3.90
2022-08-07T08:51:49.508Z,4.10
2022-08-07T08:54:25.877Z,4.57
2022-08-07T08:56:55.903Z,5.30
2022-08-07T08:59:30.232Z,4.03
2022-08-07T09:02:18.937Z,4.70
2022-08-07T09:05:15.065Z,4.20
2022-08-07T09:07:57.953Z,4.82
2022-08-07T09:10:32.508Z,4.13
2022-08-07T09:13:09.512Z,3.70
2022-08-07T09:16:25.929Z,4.38
2022-08-07T09:19:52.041Z,4.57
2022-08-07T09:24:31.093Z,4.05
2022-08-07T09:25:33.348Z,3.90
2022-08-07T09:28:06.032Z,4.47
2022-08-07T09:31:04.954Z,4.03
2022-08-07T09:34:07.394Z,4.25
2022-08-07T09:36:42.940Z,4.15
2022-08-07T09:39:54.219Z,4.78
2022-08-07T09:42:33.750Z,3.53
2022-08-07T09:47:23.901Z,3.92
2022-08-07T09:48:29.709Z,3.65
2022-08-07T09:51:26.133Z,3.80
2022-08-07T09:54:05.091Z,3.88
2022-08-07T09:57:13.674Z,4.68
2022-08-07T10:00:08.078Z,4.75
2022-08-07T10:04:05.126Z,3.67
2022-08-07T10:06:25.730Z,6.30
2022-08-07T10:09:42.473Z,4.53
2022-08-07T10:12:21.971Z,5.15
2022-08-07T10:15:19.722Z,4.15
2022-08-07T10:18:03.497Z,4.18
2022-08-07T10:20:41.022Z,3.42
2022-08-07T10:26:38.130Z,3.38
2022-08-07T10:29:25.857Z,4.00
2022-08-07T10:32:35.745Z,3.88
2022-08-07T10:35:20.215Z,3.60
2022-08-07T10:38:21.843Z,3.17
2022-08-07T10:40:55.067Z,3.55
2022-08-07T10:43:34.795Z,3.28
2022-08-07T10:46:14.358Z,3.28
2022-08-07T10:48:56.516Z,3.65
2022-08-07T10:51:57.142Z,3.92
2022-08-07T10:54:31.988Z,3.58
2022-08-07T10:57:12.536Z,4.20
2022-08-07T11:00:03.536Z,3.72
2022-08-07T11:02:40.077Z,3.40
2022-08-07T11:05:35.768Z,3.92
2022-08-07T11:08:30.305Z,4.05
2022-08-07T11:11:05.254Z,3.92
2022-08-07T11:14:42.749Z,3.83
2022-08-07T11:16:32.583Z,3.45
2022-08-07T11:19:07.396Z,3.78
2022-08-07T11:21:47.696Z,3.60
2022-08-07T11:24:22.917Z,3.80
2022-08-07T11:26:55.787Z,3.70
2022-08-07T11:29:40.885Z,3.92
2022-08-07T11:32:25.923Z,4.22
2022-08-07T11:34:58.805Z,3.65
2022-08-07T11:37:57.951Z,3.50
2022-08-07T11:40:49.846Z,4.85
2022-08-07T11:43:29.494Z,4.25
2022-08-07T11:46:16.974Z,3.20
2022-08-07T11:50:11.215Z,3.80
2022-08-07T11:52:40.112Z,3.97
2022-08-07T11:58:16.463Z,3.42
2022-08-07T12:01:02.375Z,3.97
2022-08-07T12:03:51.160Z,3.53
2022-08-07T12:06:37.878Z,3.40
2022-08-07T12:09:16.831Z,3.60
2022-08-07T12:12:09.297Z,4.18
2022-08-07T12:14:55.509Z,3.90
2022-08-07T12:17:34.197Z,3.40
2022-08-07T12:20:18.561Z,5.80
2022-08-07T12:23:14.536Z,3.40
2022-08-07T12:26:03.337Z,3.20
2022-08-07T12:28:53.097Z,3.03
2022-08-07T12:31:37.692Z,3.42
2022-08-07T12:34:21.680Z,3.30
2022-08-07T12:36:55.654Z,3.00
2022-08-07T12:39:43.259Z,3.20
2022-08-07T12:42:27.071Z,3.58
2022-08-07T12:44:59.082Z,3.53
2022-08-07T12:47:37.698Z,3.42
2022-08-07T12:50:34.081Z,3.20
2022-08-07T12:53:17.502Z,3.15
2022-08-07T12:56:02.481Z,3.17
2022-08-07T12:58:39.611Z,2.80
2022-08-07T13:01:21.253Z,2.75
2022-08-07T13:04:13.588Z,3.22
2022-08-07T13:08:12.331Z,3.05
2022-08-07T13:10:39.846Z,3.15
2022-08-07T13:13:48.657Z,5.40
2022-08-07T13:16:28.348Z,2.70
2022-08-07T13:19:11.379Z,2.80
2022-08-07T13:21:59.070Z,2.83
2022-08-07T13:24:43.917Z,2.85
2022-08-07T13:28:05.701Z,3.05
2022-08-07T13:30:19.582Z,3.15
2022-08-07T13:34:30.878Z,3.08
2022-08-07T13:36:05.361Z,2.17
2022-08-07T13:38:42.091Z,2.85
2022-08-07T13:41:23.986Z,2.55
2022-08-07T13:44:01.404Z,2.70
2022-08-07T13:46:37.626Z,2.40
2022-08-07T13:50:34.506Z,2.70
2022-08-07T13:52:26.424Z,2.20
2022-08-07T13:54:57.298Z,2.45
2022-08-07T13:57:37.555Z,3.47
2022-08-07T14:00:26.343Z,2.33
2022-08-07T14:02:59.524Z,2.42
2022-08-07T14:05:38.189Z,2.60
2022-08-07T14:08:09.144Z,2.50
2022-08-07T14:10:43.610Z,2.58
2022-08-07T14:13:16.868Z,3.65
2022-08-07T14:15:54.174Z,3.45
2022-08-07T14:18:30.810Z,3.80
2022-08-07T14:21:21.101Z,2.30
2022-08-07T14:26:38.452Z,2.40
2022-08-07T14:30:07.112Z,2.30
2022-08-07T14:32:02.855Z,2.00
2022-08-07T14:34:34.338Z,2.15
2022-08-07T14:37:19.214Z,2.10
2022-08-07T14:40:17.709Z,1.88
2022-08-07T14:43:55.143Z,2.80
2022-08-07T14:48:27.647Z,1.95
2022-08-07T14:50:58.627Z,2.35
2022-08-07T14:54:03.801Z,2.22
2022-08-07T14:56:29.963Z,2.17
2022-08-07T15:01:54.051Z,2.40
2022-08-07T15:10:11.424Z,1.65
2022-08-07T15:12:43.663Z,2.13
2022-08-07T15:15:27.034Z,2.10
2022-08-07T15:18:02.511Z,1.70
2022-08-07T15:30:09.797Z,1.40
2022-08-07T15:32:11.590Z,1.70
2022-08-07T15:34:50.153Z,1.52
2022-08-07T15:37:27.386Z,1.60
2022-08-07T15:39:59.672Z,1.50
2022-08-07T15:42:52.140Z,1.63
2022-08-07T15:45:56.196Z,1.50
2022-08-07T15:48:30.503Z,1.35
2022-08-07T15:51:09.886Z,1.83
2022-08-07T15:53:53.108Z,1.30
2022-08-07T15:56:26.676Z,1.40
2022-08-07T15:59:05.633Z,1.50
2022-08-07T16:01:38.962Z,1.48
2022-08-07T16:04:14.520Z,1.52
2022-08-07T16:06:49.638Z,1.52
2022-08-07T16:09:23.290Z,1.38
2022-08-07T16:12:21.619Z,1.20
2022-08-07T16:15:10.778Z,1.75
2022-08-07T16:18:08.351Z,1.50
2022-08-07T16:21:43.712Z,1.27
2022-08-07T16:23:58.514Z,1.48
2022-08-07T16:26:58.745Z,1.48
2022-08-07T16:30:11.140Z,1.20
2022-08-07T16:32:46.197Z,1.20
2022-08-07T16:35:56.791Z,1.42
2022-08-07T16:39:00.476Z,1.48
2022-08-07T16:41:41.424Z,1.40
2022-08-07T16:45:24.567Z,1.27
2022-08-07T16:48:28.431Z,0.93
2022-08-07T16:51:57.715Z,1.20
2022-08-07T16:54:32.629Z,1.20
2022-08-07T16:58:02.062Z,1.20
2022-08-07T17:00:30.056Z,1.08
2022-08-07T17:03:57.776Z,1.45
2022-08-07T17:09:13.869Z,1.63
2022-08-07T17:12:03.980Z,3.05
2022-08-07T17:14:54.752Z,2.65
2022-08-07T17:17:46.466Z,2.00
2022-08-07T17:20:35.579Z,1.52
2022-08-07T17:23:17.161Z,1.50
2022-08-07T17:25:57.281Z,1.55
2022-08-07T17:28:35.557Z,2.80
2022-08-07T17:31:17.385Z,3.22
2022-08-07T17:34:15.492Z,2.00
2022-08-07T17:36:57.936Z,2.50
2022-08-07T17:42:58.110Z,3.53
2022-08-07T17:45:35.143Z,1.92
2022-08-07T17:48:10.311Z,1.50
2022-08-07T17:51:00.146Z,1.95
2022-08-07T17:54:00.151Z,1.30
2022-08-07T17:56:35.800Z,1.52
2022-08-07T17:59:17.165Z,1.60
2022-08-07T18:01:57.077Z,1.98
2022-08-07T18:04:34.579Z,1.70
2022-08-07T18:07:20.536Z,1.92
2022-08-07T18:10:06.211Z,1.63
2022-08-07T18:13:06.896Z,1.42
2022-08-07T18:15:51.811Z,1.60
2022-08-07T18:18:46.316Z,1.85
2022-08-07T18:21:37.403Z,1.38
2022-08-07T18:24:33.571Z,2.60
2022-08-07T18:27:38.810Z,3.17
2022-08-07T18:30:32.478Z,2.05
2022-08-07T18:33:35.568Z,1.80
2022-08-07T18:36:15.977Z,1.80
2022-08-07T18:40:07.919Z,1.60
2022-08-07T18:42:13.082Z,1.97
2022-08-07T18:45:39.982Z,3.67
2022-08-07T18:48:01.150Z,3.35
2022-08-07T18:50:49.287Z,1.80
2022-08-07T18:53:36.773Z,2.30
2022-08-07T18:56:15.196Z,2.75
2022-08-07T18:58:59.030Z,3.05
2022-08-07T19:02:18.709Z,2.80
2022-08-07T19:04:56.228Z,2.53
2022-08-07T19:07:35.021Z,2.17
2022-08-07T19:10:14.815Z,1.80
2022-08-07T19:12:59.388Z,1.55
2022-08-07T19:16:05.731Z,1.75
2022-08-07T19:18:36.940Z,4.30
2022-08-07T19:21:47.784Z,2.40
2022-08-07T19:24:30.937Z,2.45
2022-08-07T19:28:57.381Z,2.67
2022-08-07T19:31:05.896Z,1.90
2022-08-07T19:32:59.300Z,2.70
2022-08-07T19:35:33.734Z,2.20
2022-08-07T19:38:15.137Z,2.00
2022-08-07T19:40:50.472Z,1.80
2022-08-07T19:43:43.457Z,2.10
2022-08-07T19:46:12.377Z,2.05
2022-08-07T19:48:54.076Z,1.90
2022-08-07T19:51:51.901Z,1.98
2022-08-07T19:54:32.021Z,1.90
2022-08-07T19:58:02.803Z,2.30
2022-08-07T19:59:59.359Z,2.30
2022-08-07T20:02:31.183Z,1.80
2022-08-07T20:05:03.742Z,2.33
2022-08-07T20:07:47.586Z,2.00
2022-08-07T20:10:36.539Z,2.90
2022-08-07T20:13:23.503Z,2.47
2022-08-07T20:15:58.308Z,3.05
2022-08-07T20:18:32.735Z,2.75
2022-08-07T20:21:21.614Z,2.75
2022-08-07T20:23:57.927Z,3.13
2022-08-07T20:26:38.599Z,2.90
2022-08-07T20:29:48.934Z,2.40
2022-08-07T20:32:11.241Z,2.97
2022-08-07T20:34:53.131Z,4.10
2022-08-07T20:37:30.010Z,3.33
2022-08-07T20:40:32.830Z,3.25
2022-08-07T20:42:57.915Z,2.72
2022-08-07T20:45:33.129Z,3.00
2022-08-07T20:48:29.668Z,3.85
2022-08-07T20:51:01.541Z,2.75
2022-08-07T20:54:04.617Z,3.78
2022-08-07T20:56:28.438Z,3.28
2022-08-07T20:59:02.270Z,2.80
2022-08-07T21:01:45.455Z,2.78
2022-08-07T21:04:23.332Z,2.70
2022-08-07T21:06:57.330Z,2.45
2022-08-07T21:09:35.404Z,2.33
2022-08-07T21:12:29.169Z,2.67
2022-08-07T21:15:02.485Z,2.33
2022-08-07T21:18:03.591Z,2.95
2022-08-07T21:20:30.374Z,2.55
2022-08-07T21:23:07.681Z,2.78
2022-08-07T21:25:50.897Z,2.90
2022-08-07T21:28:48.498Z,2.70
2022-08-07T21:31:49.826Z,2.70
2022-08-07T21:34:22.355Z,3.05
2022-08-07T21:37:03.704Z,2.92
2022-08-07T21:39:46.363Z,2.85
2022-08-07T21:42:42.880Z,2.70
2022-08-07T21:46:07.611Z,3.13
2022-08-07T21:48:29.225Z,3.00
2022-08-07T21:51:19.343Z,2.30
2022-08-07T21:53:53.082Z,2.85
2022-08-07T21:56:35.690Z,3.03
2022-08-07T21:59:09.187Z,3.40
2022-08-07T22:02:10.685Z,3.08
2022-08-07T22:04:41.104Z,3.10
2022-08-07T22:07:31.484Z,3.33
2022-08-07T22:10:16.462Z,2.90
2022-08-07T22:12:49.671Z,3.35
2022-08-07T22:16:43.305Z,3.20
2022-08-07T22:18:22.990Z,3.45
2022-08-07T22:20:55.509Z,3.05
2022-08-07T22:23:29.551Z,3.60
2022-08-07T22:26:05.988Z,3.40
2022-08-07T22:28:42.689Z,3.28
2022-08-07T22:31:45.608Z,3.47
2022-08-07T22:34:28.746Z,3.47
2022-08-07T22:37:09.401Z,3.47
2022-08-07T22:39:53.180Z,3.65
2022-08-07T22:42:25.651Z,3.17
2022-08-07T22:45:02.243Z,3.42
2022-08-07T22:47:55.685Z,3.70
2022-08-07T22:51:09.556Z,4.30
2022-08-07T22:54:07.477Z,4.30
2022-08-07T22:56:52.211Z,4.05
2022-08-07T22:59:50.093Z,4.45
2022-08-07T23:02:42.398Z,3.78
2022-08-07T23:06:09.842Z,4.18
2022-08-07T23:10:00.742Z,4.07
2022-08-07T23:15:07.241Z,3.78
2022-08-07T23:17:48.806Z,4.30
2022-08-07T23:20:51.002Z,4.05
2022-08-07T23:24:06.356Z,4.10
2022-08-07T23:26:41.159Z,3.80
2022-08-07T23:30:39.683Z,4.03
2022-08-07T23:34:35.691Z,4.05
2022-08-07T23:36:08.665Z,3.67
2022-08-07T23:38:57.786Z,4.00
2022-08-07T23:42:05.086Z,3.67
2022-08-07T23:45:33.153Z,3.60
2022-08-07T23:48:28.044Z,3.78
2022-08-07T23:51:03.618Z,4.10
2022-08-07T23:53:59.842Z,3.92
2022-08-07T23:56:35.121Z,4.10
